sensor_id;sensor_type;location;lat;lon;timestamp;pressure;altitude;pressure_sealevel;temperature;humidity
11448;BME280;43755;49.736;8.734;2023-03-14T00:00:53;96032.66;;;9.49;100.00
11448;BME280;43755;49.736;8.734;2023-03-14T00:02:55;96026.66;;;9.47;100.00
11448;BME280;43755;49.736;8.734;2023-03-14T00:04:56;96045.25;;;9.45;100.00
11448;BME280;43755;49.736;8.734;2023-03-14T00:06:58;96000.59;;;9.42;100.00
11448;BME280;43755;49.736;8.734;2023-03-14T00:09:00;96024.34;;;9.42;100.00
11448;BME280;43755;49.736;8.734;2023-03-14T00:11:07;96038.50;;;9.41;100.00
11448;BME280;43755;49.736;8.734;2023-03-14T00:13:08;96035.84;;;9.41;100.00
11448;BME280;43755;49.736;8.734;2023-03-14T00:15:10;96037.75;;;9.39;100.00
11448;BME280;43755;49.736;8.734;2023-03-14T00:17:11;96035.00;;;9.40;100.00
11448;BME280;43755;49.736;8.734;2023-03-14T00:19:14;96034.59;;;9.47;100.00
11448;BME280;43755;49.736;8.734;2023-03-14T00:21:15;96044.28;;;9.46;100.00
11448;BME280;43755;49.736;8.734;2023-03-14T00:23:17;96037.31;;;9.45;100.00
11448;BME280;43755;49.736;8.734;2023-03-14T00:25:19;96020.44;;;9.48;100.00
11448;BME280;43755;49.736;8.734;2023-03-14T00:27:21;96024.03;;;9.47;100.00
11448;BME280;43755;49.736;8.734;2023-03-14T00:29:22;96026.44;;;9.50;100.00
11448;BME280;43755;49.736;8.734;2023-03-14T00:31:24;96027.19;;;9.52;100.00
11448;BME280;43755;49.736;8.734;2023-03-14T00:33:25;96024.56;;;9.52;100.00
11448;BME280;43755;49.736;8.734;2023-03-14T00:35:26;96022.09;;;9.49;100.00
11448;BME280;43755;49.736;8.734;2023-03-14T00:37:28;96022.25;;;9.47;100.00
11448;BME280;43755;49.736;8.734;2023-03-14T00:39:29;96037.41;;;9.43;100.00
11448;BME280;43755;49.736;8.734;2023-03-14T00:41:32;96022.16;;;9.36;100.00
11448;BME280;43755;49.736;8.734;2023-03-14T00:43:33;96022.53;;;9.42;100.00
11448;BME280;43755;49.736;8.734;2023-03-14T00:45:35;96034.25;;;9.38;100.00
11448;BME280;43755;49.736;8.734;2023-03-14T00:47:36;96020.03;;;9.41;100.00
11448;BME280;43755;49.736;8.734;2023-03-14T00:49:37;96008.63;;;9.40;100.00
11448;BME280;43755;49.736;8.734;2023-03-14T00:51:39;96018.75;;;9.47;100.00
11448;BME280;43755;49.736;8.734;2023-03-14T00:53:41;96009.25;;;9.44;100.00
11448;BME280;43755;49.736;8.734;2023-03-14T00:55:43;96005.66;;;9.45;100.00
11448;BME280;43755;49.736;8.734;2023-03-14T00:57:46;95999.00;;;9.39;100.00
11448;BME280;43755;49.736;8.734;2023-03-14T00:59:48;95997.97;;;9.42;100.00
11448;BME280;43755;49.736;8.734;2023-03-14T01:01:49;96001.97;;;9.35;100.00
11448;BME280;43755;49.736;8.734;2023-03-14T01:03:51;96020.13;;;9.39;100.00
11448;BME280;43755;49.736;8.734;2023-03-14T01:05:53;96004.63;;;9.35;100.00
11448;BME280;43755;49.736;8.734;2023-03-14T01:07:54;95991.53;;;9.33;100.00
11448;BME280;43755;49.736;8.734;2023-03-14T01:09:56;96008.72;;;9.39;100.00
11448;BME280;43755;49.736;8.734;2023-03-14T01:11:57;96023.59;;;9.40;100.00
11448;BME280;43755;49.736;8.734;2023-03-14T01:14:00;96018.94;;;9.43;100.00
11448;BME280;43755;49.736;8.734;2023-03-14T01:16:03;96012.09;;;9.41;100.00
11448;BME280;43755;49.736;8.734;2023-03-14T01:18:05;96028.66;;;9.43;100.00
11448;BME280;43755;49.736;8.734;2023-03-14T01:20:09;96023.19;;;9.46;100.00
11448;BME280;43755;49.736;8.734;2023-03-14T01:22:10;96014.41;;;9.45;100.00
11448;BME280;43755;49.736;8.734;2023-03-14T01:24:12;96023.81;;;9.50;100.00
11448;BME280;43755;49.736;8.734;2023-03-14T01:26:15;96024.03;;;9.47;100.00
11448;BME280;43755;49.736;8.734;2023-03-14T01:28:19;96007.78;;;9.53;100.00
11448;BME280;43755;49.736;8.734;2023-03-14T01:30:21;96011.44;;;9.50;100.00
11448;BME280;43755;49.736;8.734;2023-03-14T01:32:23;95998.91;;;9.54;100.00
11448;BME280;43755;49.736;8.734;2023-03-14T01:34:28;96004.91;;;9.56;100.00
11448;BME280;43755;49.736;8.734;2023-03-14T01:36:29;95988.88;;;9.59;100.00
11448;BME280;43755;49.736;8.734;2023-03-14T01:38:32;95995.94;;;9.58;100.00
11448;BME280;43755;49.736;8.734;2023-03-14T01:40:34;95981.88;;;9.58;100.00
11448;BME280;43755;49.736;8.734;2023-03-14T01:42:45;95992.34;;;9.59;100.00
11448;BME280;43755;49.736;8.734;2023-03-14T01:44:48;95990.22;;;9.64;100.00
11448;BME280;43755;49.736;8.734;2023-03-14T01:46:52;95991.34;;;9.73;100.00
11448;BME280;43755;49.736;8.734;2023-03-14T01:49:04;95983.75;;;9.68;100.00
11448;BME280;43755;49.736;8.734;2023-03-14T01:51:12;95979.00;;;9.73;100.00
11448;BME280;43755;49.736;8.734;2023-03-14T01:53:15;95974.28;;;9.66;100.00
11448;BME280;43755;49.736;8.734;2023-03-14T01:55:20;95969.09;;;9.64;100.00
11448;BME280;43755;49.736;8.734;2023-03-14T01:57:27;95969.81;;;9.66;100.00
11448;BME280;43755;49.736;8.734;2023-03-14T01:59:31;95961.38;;;9.61;100.00
11448;BME280;43755;49.736;8.734;2023-03-14T02:01:34;95943.56;;;9.65;100.00
11448;BME280;43755;49.736;8.734;2023-03-14T02:03:43;95943.56;;;9.65;100.00
11448;BME280;43755;49.736;8.734;2023-03-14T02:05:46;95937.03;;;9.58;100.00
11448;BME280;43755;49.736;8.734;2023-03-14T02:07:51;95934.16;;;9.61;100.00
11448;BME280;43755;49.736;8.734;2023-03-14T02:09:54;95925.28;;;9.62;100.00
11448;BME280;43755;49.736;8.734;2023-03-14T02:11:57;95917.59;;;9.59;100.00
11448;BME280;43755;49.736;8.734;2023-03-14T02:14:00;95919.28;;;9.60;100.00
11448;BME280;43755;49.736;8.734;2023-03-14T02:16:03;95916.84;;;9.57;100.00
11448;BME280;43755;49.736;8.734;2023-03-14T02:18:05;95910.00;;;9.54;100.00
11448;BME280;43755;49.736;8.734;2023-03-14T02:20:23;95919.50;;;9.57;100.00
11448;BME280;43755;49.736;8.734;2023-03-14T02:22:28;95914.94;;;9.59;100.00
11448;BME280;43755;49.736;8.734;2023-03-14T02:24:34;95918.53;;;9.58;100.00
11448;BME280;43755;49.736;8.734;2023-03-14T02:26:42;95900.91;;;9.58;100.00
11448;BME280;43755;49.736;8.734;2023-03-14T02:28:46;95916.66;;;9.60;100.00
11448;BME280;43755;49.736;8.734;2023-03-14T02:30:48;95919.06;;;9.63;100.00
11448;BME280;43755;49.736;8.734;2023-03-14T02:32:57;95903.97;;;9.65;100.00
11448;BME280;43755;49.736;8.734;2023-03-14T02:35:03;95908.16;;;9.67;100.00
11448;BME280;43755;49.736;8.734;2023-03-14T02:37:06;95906.59;;;9.65;100.00
11448;BME280;43755;49.736;8.734;2023-03-14T02:39:11;95905.84;;;9.63;100.00
11448;BME280;43755;49.736;8.734;2023-03-14T02:41:16;95905.84;;;9.63;100.00
11448;BME280;43755;49.736;8.734;2023-03-14T02:43:17;95904.06;;;9.63;100.00
11448;BME280;43755;49.736;8.734;2023-03-14T02:45:43;95897.53;;;9.56;100.00
11448;BME280;43755;49.736;8.734;2023-03-14T02:47:47;95887.31;;;9.52;100.00
11448;BME280;43755;49.736;8.734;2023-03-14T02:49:52;95883.63;;;9.54;100.00
11448;BME280;43755;49.736;8.734;2023-03-14T02:51:55;95885.50;;;9.52;100.00
11448;BME280;43755;49.736;8.734;2023-03-14T02:53:56;95889.72;;;9.55;100.00
11448;BME280;43755;49.736;8.734;2023-03-14T02:55:57;95899.56;;;9.53;100.00
11448;BME280;43755;49.736;8.734;2023-03-14T02:57:59;95885.50;;;9.52;100.00
11448;BME280;43755;49.736;8.734;2023-03-14T03:00:01;95887.50;;;9.49;100.00
11448;BME280;43755;49.736;8.734;2023-03-14T03:02:05;95890.16;;;9.49;100.00
11448;BME280;43755;49.736;8.734;2023-03-14T03:04:06;95875.16;;;9.49;100.00
11448;BME280;43755;49.736;8.734;2023-03-14T03:06:08;95888.34;;;9.49;100.00
11448;BME280;43755;49.736;8.734;2023-03-14T03:08:10;95882.03;;;9.52;100.00
11448;BME280;43755;49.736;8.734;2023-03-14T03:10:12;95886.56;;;9.50;100.00
11448;BME280;43755;49.736;8.734;2023-03-14T03:12:13;95885.97;;;9.46;100.00
11448;BME280;43755;49.736;8.734;2023-03-14T03:14:15;95881.22;;;9.38;100.00
11448;BME280;43755;49.736;8.734;2023-03-14T03:16:16;95890.28;;;9.47;100.00
11448;BME280;43755;49.736;8.734;2023-03-14T03:18:19;95877.53;;;9.41;100.00
11448;BME280;43755;49.736;8.734;2023-03-14T03:20:21;95872.25;;;9.41;100.00
11448;BME280;43755;49.736;8.734;2023-03-14T03:22:22;95852.44;;;9.35;100.00
11448;BME280;43755;49.736;8.734;2023-03-14T03:24:23;95874.47;;;9.34;100.00
11448;BME280;43755;49.736;8.734;2023-03-14T03:26:25;95866.16;;;9.28;100.00
11448;BME280;43755;49.736;8.734;2023-03-14T03:28:26;95862.38;;;9.19;100.00
11448;BME280;43755;49.736;8.734;2023-03-14T03:30:28;95849.81;;;9.23;100.00
11448;BME280;43755;49.736;8.734;2023-03-14T03:32:29;95849.81;;;9.23;100.00
11448;BME280;43755;49.736;8.734;2023-03-14T03:34:32;95849.06;;;9.21;100.00
11448;BME280;43755;49.736;8.734;2023-03-14T03:36:33;95836.72;;;9.21;100.00
11448;BME280;43755;49.736;8.734;2023-03-14T03:38:35;95823.03;;;9.16;100.00
11448;BME280;43755;49.736;8.734;2023-03-14T03:40:37;95830.09;;;9.16;100.00
11448;BME280;43755;49.736;8.734;2023-03-14T03:42:38;95834.53;;;9.15;100.00
11448;BME280;43755;49.736;8.734;2023-03-14T03:44:39;95820.41;;;9.16;100.00
11448;BME280;43755;49.736;8.734;2023-03-14T03:46:41;95814.28;;;9.16;100.00
11448;BME280;43755;49.736;8.734;2023-03-14T03:48:42;95806.19;;;9.06;100.00
11448;BME280;43755;49.736;8.734;2023-03-14T03:50:46;95809.66;;;9.07;100.00
11448;BME280;43755;49.736;8.734;2023-03-14T03:52:47;95809.22;;;9.13;100.00
11448;BME280;43755;49.736;8.734;2023-03-14T03:54:49;95794.56;;;9.09;100.00
11448;BME280;43755;49.736;8.734;2023-03-14T03:56:50;95794.56;;;9.09;100.00
11448;BME280;43755;49.736;8.734;2023-03-14T03:58:52;95800.91;;;9.06;100.00
11448;BME280;43755;49.736;8.734;2023-03-14T04:00:54;95791.31;;;9.05;100.00
11448;BME280;43755;49.736;8.734;2023-03-14T04:02:55;95790.13;;;9.09;100.00
11448;BME280;43755;49.736;8.734;2023-03-14T04:04:56;95801.75;;;9.07;100.00
11448;BME280;43755;49.736;8.734;2023-03-14T04:06:59;95793.72;;;9.08;100.00
11448;BME280;43755;49.736;8.734;2023-03-14T04:09:01;95805.94;;;9.09;100.00
11448;BME280;43755;49.736;8.734;2023-03-14T04:11:03;95797.34;;;9.07;100.00
11448;BME280;43755;49.736;8.734;2023-03-14T04:13:04;95811.56;;;9.04;100.00
11448;BME280;43755;49.736;8.734;2023-03-14T04:15:07;95797.44;;;9.06;100.00
11448;BME280;43755;49.736;8.734;2023-03-14T04:17:08;95800.78;;;9.08;100.00
11448;BME280;43755;49.736;8.734;2023-03-14T04:19:10;95806.38;;;9.03;100.00
11448;BME280;43755;49.736;8.734;2023-03-14T04:21:11;95812.63;;;9.02;100.00
11448;BME280;43755;49.736;8.734;2023-03-14T04:23:14;95805.44;;;9.04;100.00
11448;BME280;43755;49.736;8.734;2023-03-14T04:25:15;95812.91;;;9.10;100.00
11448;BME280;43755;49.736;8.734;2023-03-14T04:27:20;95815.13;;;9.16;100.00
11448;BME280;43755;49.736;8.734;2023-03-14T04:29:21;95810.25;;;9.23;100.00
11448;BME280;43755;49.736;8.734;2023-03-14T04:31:22;95801.38;;;9.24;100.00
11448;BME280;43755;49.736;8.734;2023-03-14T04:33:24;95809.06;;;9.27;100.00
11448;BME280;43755;49.736;8.734;2023-03-14T04:35:25;95810.53;;;9.31;100.00
11448;BME280;43755;49.736;8.734;2023-03-14T04:37:27;95811.25;;;9.33;100.00
11448;BME280;43755;49.736;8.734;2023-03-14T04:39:29;95807.16;;;9.29;100.00
11448;BME280;43755;49.736;8.734;2023-03-14T04:41:31;95819.91;;;9.35;100.00
11448;BME280;43755;49.736;8.734;2023-03-14T04:43:33;95809.38;;;9.35;100.00
11448;BME280;43755;49.736;8.734;2023-03-14T04:45:34;95802.28;;;9.35;100.00
11448;BME280;43755;49.736;8.734;2023-03-14T04:47:36;95807.06;;;9.30;100.00
11448;BME280;43755;49.736;8.734;2023-03-14T04:49:37;95800.72;;;9.33;100.00
11448;BME280;43755;49.736;8.734;2023-03-14T04:51:38;95809.47;;;9.33;100.00
11448;BME280;43755;49.736;8.734;2023-03-14T04:53:40;95806.94;;;9.32;100.00
11448;BME280;43755;49.736;8.734;2023-03-14T04:55:46;95800.72;;;9.33;100.00
11448;BME280;43755;49.736;8.734;2023-03-14T04:57:48;95805.25;;;9.31;100.00
11448;BME280;43755;49.736;8.734;2023-03-14T04:59:49;95781.75;;;9.28;100.00
11448;BME280;43755;49.736;8.734;2023-03-14T05:01:51;95776.34;;;9.29;100.00
11448;BME280;43755;49.736;8.734;2023-03-14T05:03:52;95776.97;;;9.33;100.00
11448;BME280;43755;49.736;8.734;2023-03-14T05:05:53;95779.50;;;9.34;100.00
11448;BME280;43755;49.736;8.734;2023-03-14T05:07:55;95771.78;;;9.31;100.00
11448;BME280;43755;49.736;8.734;2023-03-14T05:09:57;95776.00;;;9.34;100.00
11448;BME280;43755;49.736;8.734;2023-03-14T05:11:59;95770.28;;;9.40;100.00
11448;BME280;43755;49.736;8.734;2023-03-14T05:14:01;95768.00;;;9.35;100.00
11448;BME280;43755;49.736;8.734;2023-03-14T05:16:07;95768.09;;;9.34;100.00
11448;BME280;43755;49.736;8.734;2023-03-14T05:18:09;95752.81;;;9.26;100.00
11448;BME280;43755;49.736;8.734;2023-03-14T05:20:10;95749.84;;;9.31;100.00
11448;BME280;43755;49.736;8.734;2023-03-14T05:22:13;95756.81;;;9.32;100.00
11448;BME280;43755;49.736;8.734;2023-03-14T05:24:14;95739.28;;;9.31;100.00
11448;BME280;43755;49.736;8.734;2023-03-14T05:26:16;95726.63;;;9.36;100.00
11448;BME280;43755;49.736;8.734;2023-03-14T05:28:18;95739.56;;;9.39;100.00
11448;BME280;43755;49.736;8.734;2023-03-14T05:30:20;95745.69;;;9.39;100.00
11448;BME280;43755;49.736;8.734;2023-03-14T05:32:21;95739.91;;;9.34;100.00
11448;BME280;43755;49.736;8.734;2023-03-14T05:34:23;95752.03;;;9.37;100.00
11448;BME280;43755;49.736;8.734;2023-03-14T05:36:24;95746.03;;;9.35;100.00
11448;BME280;43755;49.736;8.734;2023-03-14T05:38:26;95741.38;;;9.38;100.00
11448;BME280;43755;49.736;8.734;2023-03-14T05:40:27;95738.72;;;9.38;100.00
11448;BME280;43755;49.736;8.734;2023-03-14T05:42:28;95740.75;;;9.35;100.00
11448;BME280;43755;49.736;8.734;2023-03-14T05:44:31;95740.03;;;9.33;100.00
11448;BME280;43755;49.736;8.734;2023-03-14T05:46:33;95730.31;;;9.33;100.00
11448;BME280;43755;49.736;8.734;2023-03-14T05:48:34;95736.44;;;9.34;100.00
11448;BME280;43755;49.736;8.734;2023-03-14T05:50:35;95748.88;;;9.32;100.00
11448;BME280;43755;49.736;8.734;2023-03-14T05:52:37;95752.47;;;9.31;100.00
11448;BME280;43755;49.736;8.734;2023-03-14T05:54:38;95745.16;;;9.23;100.00
11448;BME280;43755;49.736;8.734;2023-03-14T05:56:40;95745.16;;;9.23;100.00
11448;BME280;43755;49.736;8.734;2023-03-14T05:58:41;95752.22;;;9.23;100.00
11448;BME280;43755;49.736;8.734;2023-03-14T06:00:44;95745.59;;;9.17;100.00
11448;BME280;43755;49.736;8.734;2023-03-14T06:02:45;95738.38;;;9.19;100.00
11448;BME280;43755;49.736;8.734;2023-03-14T06:04:47;95751.56;;;9.19;100.00
11448;BME280;43755;49.736;8.734;2023-03-14T06:06:48;95752.66;;;9.17;100.00
11448;BME280;43755;49.736;8.734;2023-03-14T06:08:50;95746.53;;;9.16;100.00
11448;BME280;43755;49.736;8.734;2023-03-14T06:10:51;95741.47;;;9.13;100.00
11448;BME280;43755;49.736;8.734;2023-03-14T06:12:53;95750.97;;;9.16;100.00
11448;BME280;43755;49.736;8.734;2023-03-14T06:14:54;95749.28;;;9.15;100.00
11448;BME280;43755;49.736;8.734;2023-03-14T06:16:57;95748.94;;;9.19;100.00
11448;BME280;43755;49.736;8.734;2023-03-14T06:18:59;95739.22;;;9.20;100.00
11448;BME280;43755;49.736;8.734;2023-03-14T06:21:00;95742.31;;;9.14;100.00
11448;BME280;43755;49.736;8.734;2023-03-14T06:23:01;95743.16;;;9.14;100.00
11448;BME280;43755;49.736;8.734;2023-03-14T06:25:03;95746.75;;;9.13;100.00
11448;BME280;43755;49.736;8.734;2023-03-14T06:27:05;95744.84;;;9.15;100.00
11448;BME280;43755;49.736;8.734;2023-03-14T06:29:06;95742.84;;;9.19;100.00
11448;BME280;43755;49.736;8.734;2023-03-14T06:31:08;95753.50;;;9.17;100.00
11448;BME280;43755;49.736;8.734;2023-03-14T06:33:10;95759.00;;;9.14;100.00
11448;BME280;43755;49.736;8.734;2023-03-14T06:35:12;95748.44;;;9.14;100.00
11448;BME280;43755;49.736;8.734;2023-03-14T06:37:13;95745.94;;;9.13;100.00
11448;BME280;43755;49.736;8.734;2023-03-14T06:39:14;95760.91;;;9.12;100.00
11448;BME280;43755;49.736;8.734;2023-03-14T06:41:16;95756.47;;;9.13;100.00
11448;BME280;43755;49.736;8.734;2023-03-14T06:43:17;95750.56;;;9.09;100.00
11448;BME280;43755;49.736;8.734;2023-03-14T06:45:19;95756.19;;;9.04;100.00
11448;BME280;43755;49.736;8.734;2023-03-14T06:47:20;95746.41;;;8.94;100.00
11448;BME280;43755;49.736;8.734;2023-03-14T06:49:23;95748.66;;;8.87;100.00
11448;BME280;43755;49.736;8.734;2023-03-14T06:51:24;95744.56;;;8.83;100.00
11448;BME280;43755;49.736;8.734;2023-03-14T06:53:26;95736.34;;;8.75;100.00
11448;BME280;43755;49.736;8.734;2023-03-14T06:55:27;95733.09;;;8.72;100.00
11448;BME280;43755;49.736;8.734;2023-03-14T06:57:28;95739.91;;;8.74;100.00
11448;BME280;43755;49.736;8.734;2023-03-14T06:59:30;95737.63;;;8.70;100.00
11448;BME280;43755;49.736;8.734;2023-03-14T07:01:31;95721.16;;;8.66;100.00
11448;BME280;43755;49.736;8.734;2023-03-14T07:03:35;95726.13;;;8.71;100.00
11448;BME280;43755;49.736;8.734;2023-03-14T07:05:37;95713.25;;;8.66;100.00
11448;BME280;43755;49.736;8.734;2023-03-14T07:07:40;95717.16;;;8.73;100.00
11448;BME280;43755;49.736;8.734;2023-03-14T07:09:41;95718.84;;;8.74;100.00
11448;BME280;43755;49.736;8.734;2023-03-14T07:11:43;95720.53;;;8.75;100.00
11448;BME280;43755;49.736;8.734;2023-03-14T07:13:45;95715.75;;;8.80;100.00
11448;BME280;43755;49.736;8.734;2023-03-14T07:15:46;95727.47;;;8.76;100.00
11448;BME280;43755;49.736;8.734;2023-03-14T07:17:47;95726.75;;;8.74;100.00
11448;BME280;43755;49.736;8.734;2023-03-14T07:19:49;95726.41;;;8.79;100.00
11448;BME280;43755;49.736;8.734;2023-03-14T07:21:51;95732.31;;;8.82;100.00
11448;BME280;43755;49.736;8.734;2023-03-14T07:23:53;95738.19;;;8.86;100.00
11448;BME280;43755;49.736;8.734;2023-03-14T07:25:55;95734.28;;;8.91;100.00
11448;BME280;43755;49.736;8.734;2023-03-14T07:27:56;95733.94;;;8.96;100.00
11448;BME280;43755;49.736;8.734;2023-03-14T07:29:58;95737.56;;;8.95;100.00
11448;BME280;43755;49.736;8.734;2023-03-14T07:31:59;95748.22;;;8.93;100.00
11448;BME280;43755;49.736;8.734;2023-03-14T07:34:00;95738.94;;;8.88;100.00
11448;BME280;43755;49.736;8.734;2023-03-14T07:36:02;95740.41;;;8.92;100.00
11448;BME280;43755;49.736;8.734;2023-03-14T07:38:05;95737.41;;;8.96;100.00
11448;BME280;43755;49.736;8.734;2023-03-14T07:40:08;95740.28;;;8.93;100.00
11448;BME280;43755;49.736;8.734;2023-03-14T07:42:12;95743.88;;;8.92;100.00
11448;BME280;43755;49.736;8.734;2023-03-14T07:44:13;95756.13;;;8.93;100.00
11448;BME280;43755;49.736;8.734;2023-03-14T07:46:15;95753.69;;;8.90;100.00
11448;BME280;43755;49.736;8.734;2023-03-14T07:48:17;95752.72;;;8.91;100.00
11448;BME280;43755;49.736;8.734;2023-03-14T07:50:19;95756.97;;;8.94;100.00
11448;BME280;43755;49.736;8.734;2023-03-14T07:52:20;95754.19;;;8.95;100.00
11448;BME280;43755;49.736;8.734;2023-03-14T07:54:23;95763.69;;;8.98;100.00
11448;BME280;43755;49.736;8.734;2023-03-14T07:56:24;95763.19;;;8.93;100.00
11448;BME280;43755;49.736;8.734;2023-03-14T07:58:26;95768.97;;;8.98;100.00
11448;BME280;43755;49.736;8.734;2023-03-14T08:00:27;95767.69;;;9.03;100.00
11448;BME280;43755;49.736;8.734;2023-03-14T08:02:29;95753.88;;;9.00;100.00
11448;BME280;43755;49.736;8.734;2023-03-14T08:04:31;95756.38;;;9.01;100.00
11448;BME280;43755;49.736;8.734;2023-03-14T08:06:32;95767.78;;;9.02;100.00
11448;BME280;43755;49.736;8.734;2023-03-14T08:08:33;95766.63;;;9.06;100.00
11448;BME280;43755;49.736;8.734;2023-03-14T08:10:36;95754.59;;;9.02;100.00
11448;BME280;43755;49.736;8.734;2023-03-14T08:12:38;95760.50;;;9.06;100.00
11448;BME280;43755;49.736;8.734;2023-03-14T08:14:39;95759.31;;;9.10;100.00
11448;BME280;43755;49.736;8.734;2023-03-14T08:16:40;95760.28;;;9.09;100.00
11448;BME280;43755;49.736;8.734;2023-03-14T08:18:42;95760.16;;;9.10;100.00
11448;BME280;43755;49.736;8.734;2023-03-14T08:20:43;95767.84;;;9.13;100.00
11448;BME280;43755;49.736;8.734;2023-03-14T08:22:44;95765.34;;;9.12;100.00
11448;BME280;43755;49.736;8.734;2023-03-14T08:24:46;95767.75;;;9.15;100.00
11448;BME280;43755;49.736;8.734;2023-03-14T08:26:49;95769.34;;;9.17;100.00
11448;BME280;43755;49.736;8.734;2023-03-14T08:28:50;95764.47;;;9.24;100.00
11448;BME280;43755;49.736;8.734;2023-03-14T08:30:54;95756.53;;;9.24;100.00
11448;BME280;43755;49.736;8.734;2023-03-14T08:32:56;95749.78;;;9.20;100.00
11448;BME280;43755;49.736;8.734;2023-03-14T08:34:58;95752.81;;;9.26;100.00
11448;BME280;43755;49.736;8.734;2023-03-14T08:36:59;95754.50;;;9.27;100.00
11448;BME280;43755;49.736;8.734;2023-03-14T08:39:01;95752.63;;;9.29;100.00
11448;BME280;43755;49.736;8.734;2023-03-14T08:41:04;95743.75;;;9.30;100.00
11448;BME280;43755;49.736;8.734;2023-03-14T08:43:07;95741.63;;;9.35;100.00
11448;BME280;43755;49.736;8.734;2023-03-14T08:45:11;95753.00;;;9.36;100.00
11448;BME280;43755;49.736;8.734;2023-03-14T08:47:13;95744.13;;;9.37;100.00
11448;BME280;43755;49.736;8.734;2023-03-14T08:49:14;95755.50;;;9.37;100.00
11448;BME280;43755;49.736;8.734;2023-03-14T08:51:16;95743.56;;;9.44;100.00
11448;BME280;43755;49.736;8.734;2023-03-14T08:53:18;95746.69;;;9.50;100.00
11448;BME280;43755;49.736;8.734;2023-03-14T08:55:21;95741.66;;;9.47;100.00
11448;BME280;43755;49.736;8.734;2023-03-14T08:57:22;95746.09;;;9.46;100.00
11448;BME280;43755;49.736;8.734;2023-03-14T08:59:28;95742.13;;;9.40;100.00
11448;BME280;43755;49.736;8.734;2023-03-14T09:01:30;95742.25;;;9.50;100.00
11448;BME280;43755;49.736;8.734;2023-03-14T09:03:31;95751.53;;;9.56;100.00
11448;BME280;43755;49.736;8.734;2023-03-14T09:05:33;95751.03;;;9.51;100.00
11448;BME280;43755;49.736;8.734;2023-03-14T09:07:35;95748.88;;;9.56;100.00
11448;BME280;43755;49.736;8.734;2023-03-14T09:09:36;95758.78;;;9.65;100.00
11448;BME280;43755;49.736;8.734;2023-03-14T09:11:38;95755.50;;;9.61;100.00
11448;BME280;43755;49.736;8.734;2023-03-14T09:13:39;95756.19;;;9.52;100.00
11448;BME280;43755;49.736;8.734;2023-03-14T09:15:42;95762.81;;;9.58;100.00
11448;BME280;43755;49.736;8.734;2023-03-14T09:17:44;95761.72;;;9.60;100.00
11448;BME280;43755;49.736;8.734;2023-03-14T09:19:45;95768.94;;;9.58;100.00
11448;BME280;43755;49.736;8.734;2023-03-14T09:21:46;95765.75;;;9.66;100.00
11448;BME280;43755;49.736;8.734;2023-03-14T09:23:48;95761.06;;;9.69;100.00
11448;BME280;43755;49.736;8.734;2023-03-14T09:25:54;95764.09;;;9.76;100.00
11448;BME280;43755;49.736;8.734;2023-03-14T09:27:55;95749.09;;;9.76;100.00
11448;BME280;43755;49.736;8.734;2023-03-14T09:29:57;95758.69;;;9.77;100.00
11448;BME280;43755;49.736;8.734;2023-03-14T09:32:00;95760.34;;;9.78;100.00
11448;BME280;43755;49.736;8.734;2023-03-14T09:34:01;95767.44;;;9.78;100.00
11448;BME280;43755;49.736;8.734;2023-03-14T09:36:03;95747.53;;;9.85;100.00
11448;BME280;43755;49.736;8.734;2023-03-14T09:38:04;95752.16;;;9.94;100.00
11448;BME280;43755;49.736;8.734;2023-03-14T09:40:09;95765.34;;;9.94;100.00
11448;BME280;43755;49.736;8.734;2023-03-14T09:42:14;95772.66;;;9.91;100.00
11448;BME280;43755;49.736;8.734;2023-03-14T09:44:21;95762.69;;;9.83;100.00
11448;BME280;43755;49.736;8.734;2023-03-14T09:46:25;95762.31;;;9.88;100.00
11448;BME280;43755;49.736;8.734;2023-03-14T09:48:31;95770.13;;;9.89;100.00
11448;BME280;43755;49.736;8.734;2023-03-14T09:50:40;95768.84;;;9.95;100.00
11448;BME280;43755;49.736;8.734;2023-03-14T09:52:46;95774.56;;;9.89;100.00
11448;BME280;43755;49.736;8.734;2023-03-14T09:54:50;95770.28;;;9.99;100.00
11448;BME280;43755;49.736;8.734;2023-03-14T09:56:53;95769.44;;;9.98;100.00
11448;BME280;43755;49.736;8.734;2023-03-14T09:58:57;95777.06;;;9.90;100.00
11448;BME280;43755;49.736;8.734;2023-03-14T10:01:00;95766.06;;;9.96;100.00
11448;BME280;43755;49.736;8.734;2023-03-14T10:03:20;95767.63;;;9.99;100.00
11448;BME280;43755;49.736;8.734;2023-03-14T10:05:25;95772.44;;;9.94;100.00
11448;BME280;43755;49.736;8.734;2023-03-14T10:07:29;95773.28;;;9.94;100.00
11448;BME280;43755;49.736;8.734;2023-03-14T10:09:32;95775.75;;;9.84;100.00
11448;BME280;43755;49.736;8.734;2023-03-14T10:11:35;95780.97;;;9.73;100.00
11448;BME280;43755;49.736;8.734;2023-03-14T10:13:47;95761.22;;;9.55;100.00
11448;BME280;43755;49.736;8.734;2023-03-14T10:15:53;95777.50;;;9.49;100.00
11448;BME280;43755;49.736;8.734;2023-03-14T10:17:54;95762.66;;;9.48;100.00
11448;BME280;43755;49.736;8.734;2023-03-14T10:19:57;95784.88;;;9.57;100.00
11448;BME280;43755;49.736;8.734;2023-03-14T10:22:01;95773.72;;;9.53;100.00
11448;BME280;43755;49.736;8.734;2023-03-14T10:24:17;95778.81;;;9.67;100.00
11448;BME280;43755;49.736;8.734;2023-03-14T10:26:24;95766.22;;;9.71;100.00
11448;BME280;43755;49.736;8.734;2023-03-14T10:28:30;95769.38;;;9.76;100.00
11448;BME280;43755;49.736;8.734;2023-03-14T10:30:39;95762.16;;;9.78;100.00
11448;BME280;43755;49.736;8.734;2023-03-14T10:32:45;95774.94;;;9.60;100.00
11448;BME280;43755;49.736;8.734;2023-03-14T10:35:07;95768.19;;;9.56;100.00
11448;BME280;43755;49.736;8.734;2023-03-14T10:37:18;95772.88;;;9.53;100.00
11448;BME280;43755;49.736;8.734;2023-03-14T10:39:28;95765.56;;;9.56;100.00
11448;BME280;43755;49.736;8.734;2023-03-14T10:41:32;95766.13;;;9.49;100.00
11448;BME280;43755;49.736;8.734;2023-03-14T10:43:35;95777.19;;;9.54;100.00
11448;BME280;43755;49.736;8.734;2023-03-14T10:45:40;95760.53;;;9.53;100.00
11448;BME280;43755;49.736;8.734;2023-03-14T10:47:48;95765.06;;;9.51;100.00
11448;BME280;43755;49.736;8.734;2023-03-14T10:49:49;95772.13;;;9.51;100.00